sensor_id;sensor_type;location;lat;lon;timestamp;pressure;altitude;pressure_sealevel;temperature;humidity
41862;BME280;27537;57.134;-2.136;2024-01-15T00:00:11;100025.53;;;-0.53;100.00
41862;BME280;27537;57.134;-2.136;2024-01-15T00:02:38;100036.69;;;-0.56;100.00
41862;BME280;27537;57.134;-2.136;2024-01-15T00:05:04;100049.53;;;-0.47;100.00
41862;BME280;27537;57.134;-2.136;2024-01-15T00:07:31;100036.72;;;-0.59;100.00
41862;BME280;27537;57.134;-2.136;2024-01-15T00:09:58;100026.44;;;-0.64;100.00
41862;BME280;27537;57.134;-2.136;2024-01-15T00:12:24;100043.53;;;-0.50;100.00
41862;BME280;27537;57.134;-2.136;2024-01-15T00:14:51;100043.53;;;-0.55;100.00
41862;BME280;27537;57.134;-2.136;2024-01-15T00:17:18;100044.38;;;-0.50;100.00
41862;BME280;27537;57.134;-2.136;2024-01-15T00:19:46;100051.25;;;-0.50;100.00
41862;BME280;27537;57.134;-2.136;2024-01-15T00:22:13;100043.53;;;-0.50;100.00
41862;BME280;27537;57.134;-2.136;2024-01-15T00:24:40;100034.94;;;-0.39;100.00
41862;BME280;27537;57.134;-2.136;2024-01-15T00:27:06;100036.63;;;-0.33;100.00
41862;BME280;27537;57.134;-2.136;2024-01-15T00:29:33;100032.31;;;-0.35;100.00
41862;BME280;27537;57.134;-2.136;2024-01-15T00:32:01;100022.13;;;-0.52;100.00
41862;BME280;27537;57.134;-2.136;2024-01-15T00:34:27;100034.91;;;-0.35;100.00
41862;BME280;27537;57.134;-2.136;2024-01-15T00:36:54;100015.19;;;-0.36;100.00
41862;BME280;27537;57.134;-2.136;2024-01-15T00:39:21;100019.44;;;-0.25;100.00
41862;BME280;27537;57.134;-2.136;2024-01-15T00:41:48;100023.75;;;-0.31;100.00
41862;BME280;27537;57.134;-2.136;2024-01-15T00:44:14;100043.50;;;-0.35;100.00
41862;BME280;27537;57.134;-2.136;2024-01-15T00:46:43;100054.63;;;-0.31;100.00
41862;BME280;27537;57.134;-2.136;2024-01-15T00:49:12;100058.97;;;-0.50;100.00
41862;BME280;27537;57.134;-2.136;2024-01-15T00:51:39;100060.56;;;-0.23;100.00
41862;BME280;27537;57.134;-2.136;2024-01-15T00:54:06;100037.50;;;-0.42;100.00
41862;BME280;27537;57.134;-2.136;2024-01-15T00:56:33;100040.06;;;-0.39;100.00
41862;BME280;27537;57.134;-2.136;2024-01-15T00:59:00;100028.06;;;-0.33;100.00
41862;BME280;27537;57.134;-2.136;2024-01-15T01:01:27;100022.03;;;-0.35;100.00
41862;BME280;27537;57.134;-2.136;2024-01-15T01:03:54;100027.06;;;-0.11;100.00
41862;BME280;27537;57.134;-2.136;2024-01-15T01:06:21;100025.38;;;-0.15;100.00
41862;BME280;27537;57.134;-2.136;2024-01-15T01:08:47;100028.84;;;-0.24;100.00
41862;BME280;27537;57.134;-2.136;2024-01-15T01:11:15;100028.84;;;-0.25;100.00
41862;BME280;27537;57.134;-2.136;2024-01-15T01:13:42;100031.47;;;-0.31;100.00
41862;BME280;27537;57.134;-2.136;2024-01-15T01:16:09;100014.31;;;-0.31;100.00
41862;BME280;27537;57.134;-2.136;2024-01-15T01:18:35;100027.16;;;-0.26;100.00
41862;BME280;27537;57.134;-2.136;2024-01-15T01:21:03;100039.22;;;-0.41;100.00
41862;BME280;27537;57.134;-2.136;2024-01-15T01:23:30;100051.22;;;-0.43;100.00
41862;BME280;27537;57.134;-2.136;2024-01-15T01:25:57;100046.91;;;-0.36;100.00
41862;BME280;27537;57.134;-2.136;2024-01-15T01:28:23;100053.75;;;-0.29;100.00
41862;BME280;27537;57.134;-2.136;2024-01-15T01:30:50;100051.19;;;-0.32;100.00
41862;BME280;27537;57.134;-2.136;2024-01-15T01:33:17;100048.63;;;-0.40;100.00
41862;BME280;27537;57.134;-2.136;2024-01-15T01:35:44;100055.50;;;-0.42;100.00
41862;BME280;27537;57.134;-2.136;2024-01-15T01:38:12;100063.25;;;-0.55;100.00
41862;BME280;27537;57.134;-2.136;2024-01-15T01:40:39;100071.81;;;-0.46;100.00
41862;BME280;27537;57.134;-2.136;2024-01-15T01:43:05;100070.94;;;-0.43;100.00
41862;BME280;27537;57.134;-2.136;2024-01-15T01:45:32;100059.81;;;-0.44;100.00
41862;BME280;27537;57.134;-2.136;2024-01-15T01:48:00;100064.88;;;-0.27;100.00
41862;BME280;27537;57.134;-2.136;2024-01-15T01:50:29;100062.38;;;-0.51;100.00
41862;BME280;27537;57.134;-2.136;2024-01-15T01:52:58;100075.25;;;-0.41;100.00
41862;BME280;27537;57.134;-2.136;2024-01-15T01:55:27;100071.78;;;-0.33;100.00
41862;BME280;27537;57.134;-2.136;2024-01-15T01:57:56;100059.72;;;-0.25;100.00
41862;BME280;27537;57.134;-2.136;2024-01-15T02:00:23;100046.84;;;-0.19;100.00
41862;BME280;27537;57.134;-2.136;2024-01-15T02:02:50;100069.97;;;-0.14;100.00
41862;BME280;27537;57.134;-2.136;2024-01-15T02:05:18;100078.56;;;-0.22;100.00
41862;BME280;27537;57.134;-2.136;2024-01-15T02:07:45;100058.78;;;-0.04;100.00
41862;BME280;27537;57.134;-2.136;2024-01-15T02:10:12;100025.44;;;-0.26;100.00
41862;BME280;27537;57.134;-2.136;2024-01-15T02:12:39;100044.22;;;-0.10;100.00
41862;BME280;27537;57.134;-2.136;2024-01-15T02:15:06;100058.81;;;-0.09;100.00
41862;BME280;27537;57.134;-2.136;2024-01-15T02:17:34;100044.28;;;-0.21;100.00
41862;BME280;27537;57.134;-2.136;2024-01-15T02:20:01;100029.69;;;-0.15;100.00
41862;BME280;27537;57.134;-2.136;2024-01-15T02:22:28;100043.38;;;-0.13;100.00
41862;BME280;27537;57.134;-2.136;2024-01-15T02:24:54;100029.75;;;-0.29;100.00
41862;BME280;27537;57.134;-2.136;2024-01-15T02:27:21;100028.91;;;-0.38;100.00
41862;BME280;27537;57.134;-2.136;2024-01-15T02:29:48;100043.50;;;-0.36;100.00
41862;BME280;27537;57.134;-2.136;2024-01-15T02:32:15;100049.53;;;-0.42;100.00
41862;BME280;27537;57.134;-2.136;2024-01-15T02:34:41;100045.22;;;-0.42;100.00
41862;BME280;27537;57.134;-2.136;2024-01-15T02:37:08;100048.59;;;-0.24;100.00
41862;BME280;27537;57.134;-2.136;2024-01-15T02:39:35;100070.00;;;-0.24;100.00
41862;BME280;27537;57.134;-2.136;2024-01-15T02:42:02;100057.25;;;-0.44;100.00
41862;BME280;27537;57.134;-2.136;2024-01-15T02:44:28;100077.78;;;-0.36;100.00
41862;BME280;27537;57.134;-2.136;2024-01-15T02:46:55;100083.00;;;-0.58;100.00
41862;BME280;27537;57.134;-2.136;2024-01-15T02:49:21;100056.47;;;-0.69;100.00
41862;BME280;27537;57.134;-2.136;2024-01-15T02:51:49;100050.41;;;-0.54;100.00
41862;BME280;27537;57.134;-2.136;2024-01-15T02:54:15;100039.25;;;-0.48;100.00
41862;BME280;27537;57.134;-2.136;2024-01-15T02:56:42;100062.41;;;-0.56;100.00
41862;BME280;27537;57.134;-2.136;2024-01-15T02:59:09;100053.84;;;-0.63;100.00
41862;BME280;27537;57.134;-2.136;2024-01-15T03:01:35;100032.47;;;-0.82;100.00
41862;BME280;27537;57.134;-2.136;2024-01-15T03:04:02;100052.97;;;-0.59;100.00
41862;BME280;27537;57.134;-2.136;2024-01-15T03:06:29;100059.03;;;-0.69;100.00
41862;BME280;27537;57.134;-2.136;2024-01-15T03:08:56;100057.31;;;-0.67;100.00
41862;BME280;27537;57.134;-2.136;2024-01-15T03:11:22;100053.09;;;-0.97;100.00
41862;BME280;27537;57.134;-2.136;2024-01-15T03:13:49;100054.75;;;-0.85;100.00
41862;BME280;27537;57.134;-2.136;2024-01-15T03:16:16;100053.94;;;-0.93;100.00
41862;BME280;27537;57.134;-2.136;2024-01-15T03:18:42;100059.03;;;-0.72;100.00
41862;BME280;27537;57.134;-2.136;2024-01-15T03:21:09;100048.75;;;-0.69;100.00
41862;BME280;27537;57.134;-2.136;2024-01-15T03:23:36;100047.00;;;-0.54;100.00
41862;BME280;27537;57.134;-2.136;2024-01-15T03:26:02;100057.31;;;-0.74;100.00
41862;BME280;27537;57.134;-2.136;2024-01-15T03:28:29;100066.69;;;-0.47;100.00
41862;BME280;27537;57.134;-2.136;2024-01-15T03:30:56;100065.84;;;-0.55;100.00
41862;BME280;27537;57.134;-2.136;2024-01-15T03:33:23;100077.81;;;-0.42;100.00
41862;BME280;27537;57.134;-2.136;2024-01-15T03:35:50;100094.97;;;-0.50;100.00
41862;BME280;27537;57.134;-2.136;2024-01-15T03:38:17;100097.50;;;-0.41;100.00
41862;BME280;27537;57.134;-2.136;2024-01-15T03:40:43;100077.81;;;-0.48;100.00
41862;BME280;27537;57.134;-2.136;2024-01-15T03:43:10;100091.53;;;-0.39;100.00
41862;BME280;27537;57.134;-2.136;2024-01-15T03:45:37;100078.72;;;-0.62;100.00
41862;BME280;27537;57.134;-2.136;2024-01-15T03:48:04;100091.53;;;-0.39;100.00
41862;BME280;27537;57.134;-2.136;2024-01-15T03:50:31;100083.84;;;-0.51;100.00
41862;BME280;27537;57.134;-2.136;2024-01-15T03:52:58;100081.19;;;-0.31;100.00
41862;BME280;27537;57.134;-2.136;2024-01-15T03:55:24;100089.69;;;-0.12;100.00
41862;BME280;27537;57.134;-2.136;2024-01-15T03:57:51;100078.66;;;-0.42;100.00
41862;BME280;27537;57.134;-2.136;2024-01-15T04:00:18;100066.69;;;-0.47;100.00
41862;BME280;27537;57.134;-2.136;2024-01-15T04:02:45;100077.78;;;-0.31;100.00
41862;BME280;27537;57.134;-2.136;2024-01-15T04:05:11;100070.91;;;-0.34;100.00
41862;BME280;27537;57.134;-2.136;2024-01-15T04:07:38;100064.91;;;-0.36;100.00
41862;BME280;27537;57.134;-2.136;2024-01-15T04:10:05;100066.63;;;-0.32;100.00
41862;BME280;27537;57.134;-2.136;2024-01-15T04:12:32;100037.53;;;-0.48;100.00
41862;BME280;27537;57.134;-2.136;2024-01-15T04:14:59;100064.97;;;-0.50;100.00
41862;BME280;27537;57.134;-2.136;2024-01-15T04:17:26;100049.59;;;-0.70;100.00
41862;BME280;27537;57.134;-2.136;2024-01-15T04:19:53;100052.16;;;-0.73;100.00
41862;BME280;27537;57.134;-2.136;2024-01-15T04:22:20;100011.03;;;-0.71;100.00
41862;BME280;27537;57.134;-2.136;2024-01-15T04:24:47;100048.69;;;-0.49;100.00
41862;BME280;27537;57.134;-2.136;2024-01-15T04:27:14;100030.75;;;-0.78;100.00
41862;BME280;27537;57.134;-2.136;2024-01-15T04:29:40;100040.16;;;-0.62;100.00
41862;BME280;27537;57.134;-2.136;2024-01-15T04:32:07;100051.25;;;-0.47;100.00
41862;BME280;27537;57.134;-2.136;2024-01-15T04:34:34;100040.13;;;-0.54;100.00
41862;BME280;27537;57.134;-2.136;2024-01-15T04:37:01;100044.47;;;-0.81;100.00
41862;BME280;27537;57.134;-2.136;2024-01-15T04:39:28;100032.50;;;-0.88;100.00
41862;BME280;27537;57.134;-2.136;2024-01-15T04:41:54;100032.50;;;-0.88;100.00
41862;BME280;27537;57.134;-2.136;2024-01-15T04:44:21;100035.91;;;-0.87;100.00
41862;BME280;27537;57.134;-2.136;2024-01-15T04:46:47;100028.22;;;-0.81;100.00
41862;BME280;27537;57.134;-2.136;2024-01-15T04:49:14;100037.63;;;-0.72;100.00
41862;BME280;27537;57.134;-2.136;2024-01-15T04:51:41;100040.22;;;-0.94;100.00
41862;BME280;27537;57.134;-2.136;2024-01-15T04:54:08;100019.66;;;-0.92;100.00
41862;BME280;27537;57.134;-2.136;2024-01-15T04:56:34;100041.94;;;-0.96;100.00
41862;BME280;27537;57.134;-2.136;2024-01-15T04:59:01;100039.34;;;-0.84;100.00
41862;BME280;27537;57.134;-2.136;2024-01-15T05:01:32;100044.38;;;-0.51;100.00
41862;BME280;27537;57.134;-2.136;2024-01-15T05:03:59;100014.44;;;-0.66;100.00
41862;BME280;27537;57.134;-2.136;2024-01-15T05:06:26;100046.09;;;-0.50;100.00
41862;BME280;27537;57.134;-2.136;2024-01-15T05:08:53;100047.00;;;-0.62;100.00
41862;BME280;27537;57.134;-2.136;2024-01-15T05:11:19;100036.72;;;-0.59;100.00
41862;BME280;27537;57.134;-2.136;2024-01-15T05:13:46;100022.13;;;-0.51;100.00
41862;BME280;27537;57.134;-2.136;2024-01-15T05:16:13;100014.41;;;-0.59;100.00
41862;BME280;27537;57.134;-2.136;2024-01-15T05:18:39;100020.47;;;-0.70;100.00
41862;BME280;27537;57.134;-2.136;2024-01-15T05:21:06;100016.97;;;-0.59;100.00
41862;BME280;27537;57.134;-2.136;2024-01-15T05:23:33;100013.59;;;-0.71;100.00
41862;BME280;27537;57.134;-2.136;2024-01-15T05:26:00;100029.03;;;-0.68;100.00
41862;BME280;27537;57.134;-2.136;2024-01-15T05:28:27;100045.31;;;-0.66;100.00
41862;BME280;27537;57.134;-2.136;2024-01-15T05:30:53;100045.25;;;-0.55;100.00
41862;BME280;27537;57.134;-2.136;2024-01-15T05:33:23;100042.72;;;-0.63;100.00
41862;BME280;27537;57.134;-2.136;2024-01-15T05:35:50;100043.53;;;-0.52;100.00
41862;BME280;27537;57.134;-2.136;2024-01-15T05:38:17;100052.09;;;-0.44;100.00
41862;BME280;27537;57.134;-2.136;2024-01-15T05:40:44;100028.16;;;-0.64;100.00
41862;BME280;27537;57.134;-2.136;2024-01-15T05:43:10;100032.44;;;-0.68;100.00
41862;BME280;27537;57.134;-2.136;2024-01-15T05:45:38;100021.31;;;-0.64;100.00
41862;BME280;27537;57.134;-2.136;2024-01-15T05:48:05;100032.41;;;-0.49;100.00
41862;BME280;27537;57.134;-2.136;2024-01-15T05:50:32;100024.69;;;-0.57;100.00
41862;BME280;27537;57.134;-2.136;2024-01-15T05:52:59;100018.66;;;-0.45;100.00
41862;BME280;27537;57.134;-2.136;2024-01-15T05:55:26;100033.25;;;-0.47;100.00
41862;BME280;27537;57.134;-2.136;2024-01-15T05:57:52;100033.25;;;-0.52;100.00
41862;BME280;27537;57.134;-2.136;2024-01-15T06:00:19;100052.09;;;-0.51;100.00
41862;BME280;27537;57.134;-2.136;2024-01-15T06:02:46;100037.59;;;-0.71;100.00
41862;BME280;27537;57.134;-2.136;2024-01-15T06:05:13;100059.75;;;-0.34;100.00
41862;BME280;27537;57.134;-2.136;2024-01-15T06:07:39;100057.16;;;-0.19;100.00
41862;BME280;27537;57.134;-2.136;2024-01-15T06:10:06;100059.72;;;-0.21;100.00
41862;BME280;27537;57.134;-2.136;2024-01-15T06:12:33;100065.75;;;-0.32;100.00
41862;BME280;27537;57.134;-2.136;2024-01-15T06:15:00;100040.94;;;-0.43;100.00
41862;BME280;27537;57.134;-2.136;2024-01-15T06:17:27;100046.91;;;-0.28;100.00
41862;BME280;27537;57.134;-2.136;2024-01-15T06:19:53;100052.84;;;-0.22;100.00
41862;BME280;27537;57.134;-2.136;2024-01-15T06:22:20;100052.91;;;-0.35;100.00
41862;BME280;27537;57.134;-2.136;2024-01-15T06:24:47;100050.28;;;-0.18;100.00
41862;BME280;27537;57.134;-2.136;2024-01-15T06:27:14;100046.94;;;-0.45;100.00
41862;BME280;27537;57.134;-2.136;2024-01-15T06:29:45;100060.66;;;-0.37;100.00
41862;BME280;27537;57.134;-2.136;2024-01-15T06:32:16;100063.22;;;-0.39;100.00
41862;BME280;27537;57.134;-2.136;2024-01-15T06:34:42;100059.81;;;-0.42;100.00
41862;BME280;27537;57.134;-2.136;2024-01-15T06:37:09;100052.09;;;-0.47;100.00
41862;BME280;27537;57.134;-2.136;2024-01-15T06:39:36;100040.16;;;-0.60;100.00
41862;BME280;27537;57.134;-2.136;2024-01-15T06:42:03;100054.72;;;-0.61;100.00
41862;BME280;27537;57.134;-2.136;2024-01-15T06:44:30;100066.69;;;-0.50;100.00
41862;BME280;27537;57.134;-2.136;2024-01-15T06:46:56;100052.13;;;-0.62;100.00
41862;BME280;27537;57.134;-2.136;2024-01-15T06:49:26;100058.19;;;-0.77;100.00
41862;BME280;27537;57.134;-2.136;2024-01-15T06:51:53;100058.13;;;-0.59;100.00
41862;BME280;27537;57.134;-2.136;2024-01-15T06:54:20;100059.88;;;-0.71;100.00
41862;BME280;27537;57.134;-2.136;2024-01-15T06:56:47;100062.44;;;-0.64;100.00
41862;BME280;27537;57.134;-2.136;2024-01-15T06:59:13;100068.47;;;-0.80;100.00
41862;BME280;27537;57.134;-2.136;2024-01-15T07:01:45;100077.91;;;-0.93;100.00
41862;BME280;27537;57.134;-2.136;2024-01-15T07:04:12;100080.44;;;-0.73;100.00
41862;BME280;27537;57.134;-2.136;2024-01-15T07:06:38;100088.19;;;-0.84;100.00
41862;BME280;27537;57.134;-2.136;2024-01-15T07:09:05;100099.28;;;-0.62;100.00
41862;BME280;27537;57.134;-2.136;2024-01-15T07:11:32;100096.69;;;-0.54;100.00
41862;BME280;27537;57.134;-2.136;2024-01-15T07:13:59;100088.97;;;-0.51;100.00
41862;BME280;27537;57.134;-2.136;2024-01-15T07:16:25;100074.47;;;-0.73;100.00
41862;BME280;27537;57.134;-2.136;2024-01-15T07:19:03;100077.91;;;-0.76;100.00
41862;BME280;27537;57.134;-2.136;2024-01-15T07:21:30;100082.19;;;-0.89;100.00
41862;BME280;27537;57.134;-2.136;2024-01-15T07:23:57;100068.47;;;-0.79;100.00
41862;BME280;27537;57.134;-2.136;2024-01-15T07:26:23;100076.19;;;-0.77;100.00
41862;BME280;27537;57.134;-2.136;2024-01-15T07:28:50;100073.59;;;-0.82;100.00
41862;BME280;27537;57.134;-2.136;2024-01-15T07:31:17;100080.47;;;-0.81;100.00
41862;BME280;27537;57.134;-2.136;2024-01-15T07:33:44;100071.06;;;-1.02;100.00
41862;BME280;27537;57.134;-2.136;2024-01-15T07:36:10;100082.19;;;-0.81;100.00
41862;BME280;27537;57.134;-2.136;2024-01-15T07:38:37;100084.72;;;-0.63;100.00
41862;BME280;27537;57.134;-2.136;2024-01-15T07:41:04;100088.19;;;-0.78;100.00
41862;BME280;27537;57.134;-2.136;2024-01-15T07:43:30;100083.88;;;-0.82;100.00
41862;BME280;27537;57.134;-2.136;2024-01-15T07:45:57;100093.28;;;-0.61;100.00
41862;BME280;27537;57.134;-2.136;2024-01-15T07:48:25;100113.03;;;-0.69;100.00
41862;BME280;27537;57.134;-2.136;2024-01-15T07:50:52;100117.28;;;-0.65;100.00
41862;BME280;27537;57.134;-2.136;2024-01-15T07:53:18;100126.72;;;-0.58;100.00
41862;BME280;27537;57.134;-2.136;2024-01-15T07:55:46;100115.50;;;-0.36;100.00
41862;BME280;27537;57.134;-2.136;2024-01-15T07:58:12;100118.13;;;-0.63;100.00
41862;BME280;27537;57.134;-2.136;2024-01-15T08:00:45;100121.59;;;-0.68;100.00
41862;BME280;27537;57.134;-2.136;2024-01-15T08:03:12;100137.84;;;-0.66;100.00
41862;BME280;27537;57.134;-2.136;2024-01-15T08:05:39;100134.41;;;-0.59;100.00
41862;BME280;27537;57.134;-2.136;2024-01-15T08:08:18;100177.28;;;-0.78;100.00
41862;BME280;27537;57.134;-2.136;2024-01-15T08:10:47;100167.03;;;-0.80;100.00
41862;BME280;27537;57.134;-2.136;2024-01-15T08:13:14;100167.00;;;-0.97;100.00
41862;BME280;27537;57.134;-2.136;2024-01-15T08:15:41;100132.75;;;-0.96;100.00
41862;BME280;27537;57.134;-2.136;2024-01-15T08:18:08;100131.03;;;-0.93;100.00
41862;BME280;27537;57.134;-2.136;2024-01-15T08:20:35;100131.03;;;-0.97;100.00
41862;BME280;27537;57.134;-2.136;2024-01-15T08:23:03;100139.59;;;-0.79;100.00
41862;BME280;27537;57.134;-2.136;2024-01-15T08:25:29;100136.16;;;-0.84;100.00
41862;BME280;27537;57.134;-2.136;2024-01-15T08:27:57;100126.72;;;-0.84;100.00
41862;BME280;27537;57.134;-2.136;2024-01-15T08:30:24;100121.59;;;-0.93;100.00
41862;BME280;27537;57.134;-2.136;2024-01-15T08:32:55;100122.47;;;-1.08;100.00
41862;BME280;27537;57.134;-2.136;2024-01-15T08:35:25;100136.16;;;-0.89;100.00
41862;BME280;27537;57.134;-2.136;2024-01-15T08:37:52;100131.03;;;-0.95;100.00
41862;BME280;27537;57.134;-2.136;2024-01-15T08:40:19;100103.63;;;-1.04;100.00
41862;BME280;27537;57.134;-2.136;2024-01-15T08:42:46;100120.75;;;-1.04;100.00
41862;BME280;27537;57.134;-2.136;2024-01-15T08:45:13;100144.72;;;-1.15;100.00
41862;BME280;27537;57.134;-2.136;2024-01-15T08:47:40;100147.28;;;-1.10;100.00
41862;BME280;27537;57.134;-2.136;2024-01-15T08:50:07;100150.72;;;-0.82;100.00
41862;BME280;27537;57.134;-2.136;2024-01-15T08:52:36;100165.28;;;-0.65;100.00
41862;BME280;27537;57.134;-2.136;2024-01-15T08:55:04;100191.84;;;-0.66;100.00
41862;BME280;27537;57.134;-2.136;2024-01-15T08:57:31;100166.97;;;-0.47;100.00
41862;BME280;27537;57.134;-2.136;2024-01-15T08:59:57;100173.84;;;-0.71;100.00
41862;BME280;27537;57.134;-2.136;2024-01-15T09:02:25;100163.59;;;-0.85;100.00
41862;BME280;27537;57.134;-2.136;2024-01-15T09:04:52;100178.16;;;-0.91;100.00
41862;BME280;27537;57.134;-2.136;2024-01-15T09:07:19;100157.59;;;-0.68;100.00
41862;BME280;27537;57.134;-2.136;2024-01-15T09:09:45;100137.00;;;-0.53;100.00
41862;BME280;27537;57.134;-2.136;2024-01-15T09:12:12;100123.25;;;-0.49;100.00
41862;BME280;27537;57.134;-2.136;2024-01-15T09:14:42;100119.78;;;-0.34;100.00
41862;BME280;27537;57.134;-2.136;2024-01-15T09:17:08;100112.94;;;-0.41;100.00
41862;BME280;27537;57.134;-2.136;2024-01-15T09:19:35;100096.66;;;-0.43;100.00
41862;BME280;27537;57.134;-2.136;2024-01-15T09:22:02;100088.09;;;-0.42;100.00
41862;BME280;27537;57.134;-2.136;2024-01-15T09:24:29;100129.25;;;-0.41;100.00
41862;BME280;27537;57.134;-2.136;2024-01-15T09:26:56;100119.84;;;-0.55;100.00
41862;BME280;27537;57.134;-2.136;2024-01-15T09:29:22;100130.09;;;-0.40;100.00
41862;BME280;27537;57.134;-2.136;2024-01-15T09:31:51;100137.00;;;-0.56;100.00
41862;BME280;27537;57.134;-2.136;2024-01-15T09:34:18;100135.28;;;-0.68;100.00
41862;BME280;27537;57.134;-2.136;2024-01-15T09:36:45;100141.28;;;-0.66;100.00
41862;BME280;27537;57.134;-2.136;2024-01-15T09:39:12;100152.47;;;-0.76;100.00
41862;BME280;27537;57.134;-2.136;2024-01-15T09:41:39;100140.44;;;-0.72;100.00
41862;BME280;27537;57.134;-2.136;2024-01-15T09:44:06;100129.31;;;-0.84;100.00
41862;BME280;27537;57.134;-2.136;2024-01-15T09:46:35;100139.56;;;-0.70;100.00
41862;BME280;27537;57.134;-2.136;2024-01-15T09:49:01;100112.16;;;-0.69;100.00
41862;BME280;27537;57.134;-2.136;2024-01-15T09:51:31;100136.97;;;-0.51;100.00
41862;BME280;27537;57.134;-2.136;2024-01-15T09:53:58;100148.94;;;-0.41;100.00
41862;BME280;27537;57.134;-2.136;2024-01-15T09:56:25;100138.66;;;-0.33;100.00
41862;BME280;27537;57.134;-2.136;2024-01-15T09:58:52;100137.78;;;-0.32;100.00
41862;BME280;27537;57.134;-2.136;2024-01-15T10:01:22;100142.13;;;-0.41;100.00
41862;BME280;27537;57.134;-2.136;2024-01-15T10:03:50;100149.81;;;-0.47;100.00
41862;BME280;27537;57.134;-2.136;2024-01-15T10:06:17;100154.03;;;-0.18;100.00
41862;BME280;27537;57.134;-2.136;2024-01-15T10:08:50;100153.19;;;-0.15;100.00
41862;BME280;27537;57.134;-2.136;2024-01-15T10:11:17;100141.19;;;-0.20;100.00
41862;BME280;27537;57.134;-2.136;2024-01-15T10:13:44;100150.56;;;-0.03;100.00
41862;BME280;27537;57.134;-2.136;2024-01-15T10:16:12;100160.84;;;0.09;100.00
41862;BME280;27537;57.134;-2.136;2024-01-15T10:18:39;100165.88;;;0.25;100.00
41862;BME280;27537;57.134;-2.136;2024-01-15T10:21:07;100174.59;;;0.02;100.00
41862;BME280;27537;57.134;-2.136;2024-01-15T10:23:34;100182.28;;;0.10;100.00
41862;BME280;27537;57.134;-2.136;2024-01-15T10:26:05;100187.38;;;0.16;100.00
41862;BME280;27537;57.134;-2.136;2024-01-15T10:28:32;100188.25;;;0.10;100.00
41862;BME280;27537;57.134;-2.136;2024-01-15T10:30:59;100189.22;;;-0.22;100.00
41862;BME280;27537;57.134;-2.136;2024-01-15T10:33:27;100191.81;;;-0.29;100.00
41862;BME280;27537;57.134;-2.136;2024-01-15T10:35:55;100196.06;;;-0.10;100.00
41862;BME280;27537;57.134;-2.136;2024-01-15T10:38:23;100188.25;;;0.20;100.00
41862;BME280;27537;57.134;-2.136;2024-01-15T10:40:51;100195.06;;;0.33;100.00
41862;BME280;27537;57.134;-2.136;2024-01-15T10:43:18;100197.63;;;0.28;100.00
41862;BME280;27537;57.134;-2.136;2024-01-15T10:45:46;100204.56;;;0.20;100.00
41862;BME280;27537;57.134;-2.136;2024-01-15T10:48:14;100201.19;;;-0.01;100.00
41862;BME280;27537;57.134;-2.136;2024-01-15T10:50:42;100204.59;;;0.06;100.00
41862;BME280;27537;57.134;-2.136;2024-01-15T10:53:11;100217.47;;;0.09;100.00
41862;BME280;27537;57.134;-2.136;2024-01-15T10:55:38;100216.41;;;0.56;100.00
41862;BME280;27537;57.134;-2.136;2024-01-15T10:58:09;100225.72;;;0.78;100.00
41862;BME280;27537;57.134;-2.136;2024-01-15T11:00:37;100222.44;;;0.52;100.00
41862;BME280;27537;57.134;-2.136;2024-01-15T11:03:07;100196.78;;;0.25;100.00
41862;BME280;27537;57.134;-2.136;2024-01-15T11:05:43;100213.13;;;0.21;100.00
41862;BME280;27537;57.134;-2.136;2024-01-15T11:08:10;100210.59;;;0.07;100.00
41862;BME280;27537;57.134;-2.136;2024-01-15T11:10:44;100214.06;;;-0.05;100.00
41862;BME280;27537;57.134;-2.136;2024-01-15T11:13:14;100196.88;;;0.06;100.00
41862;BME280;27537;57.134;-2.136;2024-01-15T11:16:01;100203.66;;;0.29;100.00
41862;BME280;27537;57.134;-2.136;2024-01-15T11:18:30;100195.06;;;0.31;100.00
41862;BME280;27537;57.134;-2.136;2024-01-15T11:23:43;100204.03;;;1.16;100.00
41862;BME280;27537;57.134;-2.136;2024-01-15T11:26:36;100198.28;;;0.75;100.00
41862;BME280;27537;57.134;-2.136;2024-01-15T11:32:04;100198.28;;;0.75;100.00
41862;BME280;27537;57.134;-2.136;2024-01-15T11:35:00;100198.34;;;0.64;100.00
41862;BME280;27537;57.134;-2.136;2024-01-15T11:40:18;100170.19;;;0.27;100.00
41862;BME280;27537;57.134;-2.136;2024-01-15T11:42:45;100170.19;;;0.23;100.00
41862;BME280;27537;57.134;-2.136;2024-01-15T11:45:18;100153.78;;;0.41;100.00
41862;BME280;27537;57.134;-2.136;2024-01-15T11:48:03;100162.41;;;0.43;100.00
41862;BME280;27537;57.134;-2.136;2024-01-15T11:50:35;100157.41;;;-0.02;100.00
41862;BME280;27537;57.134;-2.136;2024-01-15T11:53:55;100154.84;;;-0.02;100.00
41862;BME280;27537;57.134;-2.136;2024-01-15T11:55:58;100149.59;;;0.24;100.00
41862;BME280;27537;57.134;-2.136;2024-01-15T11:58:26;100155.59;;;0.26;100.00
41862;BME280;27537;57.134;-2.136;2024-01-15T12:00:52;100142.63;;;0.46;100.00
41862;BME280;27537;57.134;-2.136;2024-01-15T12:03:22;100154.63;;;0.49;100.00
41862;BME280;27537;57.134;-2.136;2024-01-15T12:05:49;100155.41;;;0.60;100.00
41862;BME280;27537;57.134;-2.136;2024-01-15T12:08:26;100153.84;;;0.36;100.00
41862;BME280;27537;57.134;-2.136;2024-01-15T12:10:53;100141.88;;;0.23;100.00
41862;BME280;27537;57.134;-2.136;2024-01-15T12:13:20;100148.81;;;0.10;100.00
41862;BME280;27537;57.134;-2.136;2024-01-15T12:15:48;100137.72;;;-0.09;100.00
41862;BME280;27537;57.134;-2.136;2024-01-15T12:18:17;100139.44;;;-0.14;100.00
41862;BME280;27537;57.134;-2.136;2024-01-15T12:20:45;100152.34;;;-0.17;100.00
41862;BME280;27537;57.134;-2.136;2024-01-15T12:23:16;100147.19;;;-0.27;100.00
41862;BME280;27537;57.134;-2.136;2024-01-15T12:25:44;100131.75;;;-0.17;100.00
41862;BME280;27537;57.134;-2.136;2024-01-15T12:28:11;100131.75;;;-0.22;100.00
41862;BME280;27537;57.134;-2.136;2024-01-15T12:30:38;100132.66;;;-0.29;100.00
41862;BME280;27537;57.134;-2.136;2024-01-15T12:33:07;100122.34;;;-0.31;100.00
41862;BME280;27537;57.134;-2.136;2024-01-15T12:35:35;100134.25;;;-0.04;100.00
41862;BME280;27537;57.134;-2.136;2024-01-15T12:38:02;100136.91;;;-0.22;100.00
41862;BME280;27537;57.134;-2.136;2024-01-15T12:40:31;100142.84;;;-0.02;100.00